sensor_id;sensor_type;location;lat;lon;timestamp;P1;durP1;ratioP1;P2;durP2;ratioP2
48524;SDS011;34316;51.514;-0.178;2024-03-07T00:00:21;28.70;;;24.67;;
48524;SDS011;34316;51.514;-0.178;2024-03-07T00:02:23;30.67;;;25.08;;
48524;SDS011;34316;51.514;-0.178;2024-03-07T00:04:25;28.58;;;24.92;;
48524;SDS011;34316;51.514;-0.178;2024-03-07T00:06:27;28.35;;;25.45;;
48524;SDS011;34316;51.514;-0.178;2024-03-07T00:08:29;28.15;;;24.80;;
48524;SDS011;34316;51.514;-0.178;2024-03-07T00:10:32;27.40;;;24.52;;
48524;SDS011;34316;51.514;-0.178;2024-03-07T00:12:34;27.95;;;24.60;;
48524;SDS011;34316;51.514;-0.178;2024-03-07T00:14:36;27.35;;;24.48;;
48524;SDS011;34316;51.514;-0.178;2024-03-07T00:16:39;29.02;;;25.85;;
48524;SDS011;34316;51.514;-0.178;2024-03-07T00:18:41;29.95;;;25.45;;
48524;SDS011;34316;51.514;-0.178;2024-03-07T00:20:43;29.15;;;25.55;;
48524;SDS011;34316;51.514;-0.178;2024-03-07T00:22:45;31.20;;;26.25;;
48524;SDS011;34316;51.514;-0.178;2024-03-07T00:24:47;29.25;;;26.00;;
48524;SDS011;34316;51.514;-0.178;2024-03-07T00:26:49;30.35;;;26.90;;
48524;SDS011;34316;51.514;-0.178;2024-03-07T00:28:52;29.92;;;26.83;;
48524;SDS011;34316;51.514;-0.178;2024-03-07T00:30:54;30.65;;;27.33;;
48524;SDS011;34316;51.514;-0.178;2024-03-07T00:32:57;29.05;;;25.98;;
48524;SDS011;34316;51.514;-0.178;2024-03-07T00:34:59;29.05;;;25.85;;
48524;SDS011;34316;51.514;-0.178;2024-03-07T00:37:01;29.55;;;26.30;;
48524;SDS011;34316;51.514;-0.178;2024-03-07T00:39:03;28.55;;;25.35;;
48524;SDS011;34316;51.514;-0.178;2024-03-07T00:41:05;28.45;;;25.35;;
48524;SDS011;34316;51.514;-0.178;2024-03-07T00:43:07;27.48;;;24.67;;
48524;SDS011;34316;51.514;-0.178;2024-03-07T00:45:09;28.58;;;25.67;;
48524;SDS011;34316;51.514;-0.178;2024-03-07T00:47:11;28.00;;;25.10;;
48524;SDS011;34316;51.514;-0.178;2024-03-07T00:49:13;29.00;;;26.00;;
48524;SDS011;34316;51.514;-0.178;2024-03-07T00:51:15;27.08;;;24.23;;
48524;SDS011;34316;51.514;-0.178;2024-03-07T00:53:17;29.13;;;24.60;;
48524;SDS011;34316;51.514;-0.178;2024-03-07T00:55:19;26.40;;;23.65;;
48524;SDS011;34316;51.514;-0.178;2024-03-07T00:57:20;27.35;;;24.42;;
48524;SDS011;34316;51.514;-0.178;2024-03-07T00:59:22;25.98;;;23.17;;
48524;SDS011;34316;51.514;-0.178;2024-03-07T01:01:24;26.73;;;23.05;;
48524;SDS011;34316;51.514;-0.178;2024-03-07T01:03:26;26.45;;;22.70;;
48524;SDS011;34316;51.514;-0.178;2024-03-07T01:05:28;26.40;;;23.60;;
48524;SDS011;34316;51.514;-0.178;2024-03-07T01:07:30;27.92;;;23.17;;
48524;SDS011;34316;51.514;-0.178;2024-03-07T01:09:33;28.83;;;22.20;;
48524;SDS011;34316;51.514;-0.178;2024-03-07T01:11:36;24.08;;;21.15;;
48524;SDS011;34316;51.514;-0.178;2024-03-07T01:13:38;25.23;;;22.52;;
48524;SDS011;34316;51.514;-0.178;2024-03-07T01:15:41;22.75;;;20.45;;
48524;SDS011;34316;51.514;-0.178;2024-03-07T01:17:43;22.75;;;20.55;;
48524;SDS011;34316;51.514;-0.178;2024-03-07T01:19:46;22.98;;;20.55;;
48524;SDS011;34316;51.514;-0.178;2024-03-07T01:21:48;22.88;;;20.05;;
48524;SDS011;34316;51.514;-0.178;2024-03-07T01:23:50;23.67;;;20.35;;
48524;SDS011;34316;51.514;-0.178;2024-03-07T01:25:52;23.52;;;21.05;;
48524;SDS011;34316;51.514;-0.178;2024-03-07T01:27:54;21.75;;;19.35;;
48524;SDS011;34316;51.514;-0.178;2024-03-07T01:29:57;22.45;;;20.17;;
48524;SDS011;34316;51.514;-0.178;2024-03-07T01:31:58;24.10;;;19.95;;
48524;SDS011;34316;51.514;-0.178;2024-03-07T01:34:00;23.23;;;20.67;;
48524;SDS011;34316;51.514;-0.178;2024-03-07T01:36:02;21.77;;;19.48;;
48524;SDS011;34316;51.514;-0.178;2024-03-07T01:38:06;22.75;;;20.35;;
48524;SDS011;34316;51.514;-0.178;2024-03-07T01:40:10;22.13;;;19.17;;
48524;SDS011;34316;51.514;-0.178;2024-03-07T01:42:12;23.15;;;20.65;;
48524;SDS011;34316;51.514;-0.178;2024-03-07T01:44:14;22.17;;;19.65;;
48524;SDS011;34316;51.514;-0.178;2024-03-07T01:46:16;22.08;;;19.67;;
48524;SDS011;34316;51.514;-0.178;2024-03-07T01:48:19;21.65;;;19.40;;
48524;SDS011;34316;51.514;-0.178;2024-03-07T01:50:30;22.40;;;18.85;;
48524;SDS011;34316;51.514;-0.178;2024-03-07T01:52:32;22.13;;;19.75;;
48524;SDS011;34316;51.514;-0.178;2024-03-07T01:54:34;22.17;;;19.77;;
48524;SDS011;34316;51.514;-0.178;2024-03-07T01:56:36;23.27;;;19.27;;
48524;SDS011;34316;51.514;-0.178;2024-03-07T01:58:39;21.83;;;19.52;;
48524;SDS011;34316;51.514;-0.178;2024-03-07T02:00:42;22.23;;;19.80;;
48524;SDS011;34316;51.514;-0.178;2024-03-07T02:02:45;22.40;;;20.02;;
48524;SDS011;34316;51.514;-0.178;2024-03-07T02:04:48;21.77;;;19.48;;
48524;SDS011;34316;51.514;-0.178;2024-03-07T02:06:50;24.73;;;20.92;;
48524;SDS011;34316;51.514;-0.178;2024-03-07T02:08:54;23.88;;;21.10;;
48524;SDS011;34316;51.514;-0.178;2024-03-07T02:10:59;22.63;;;20.33;;
48524;SDS011;34316;51.514;-0.178;2024-03-07T02:13:02;23.35;;;20.95;;
48524;SDS011;34316;51.514;-0.178;2024-03-07T02:15:04;22.23;;;19.75;;
48524;SDS011;34316;51.514;-0.178;2024-03-07T02:17:06;25.45;;;22.75;;
48524;SDS011;34316;51.514;-0.178;2024-03-07T02:19:11;23.50;;;21.17;;
48524;SDS011;34316;51.514;-0.178;2024-03-07T02:21:16;23.63;;;21.17;;
48524;SDS011;34316;51.514;-0.178;2024-03-07T02:23:18;23.23;;;20.75;;
48524;SDS011;34316;51.514;-0.178;2024-03-07T02:25:20;23.38;;;20.85;;
48524;SDS011;34316;51.514;-0.178;2024-03-07T02:27:21;22.83;;;20.55;;
48524;SDS011;34316;51.514;-0.178;2024-03-07T02:29:23;23.38;;;20.90;;
48524;SDS011;34316;51.514;-0.178;2024-03-07T02:31:26;23.77;;;21.20;;
48524;SDS011;34316;51.514;-0.178;2024-03-07T02:33:36;23.38;;;20.88;;
48524;SDS011;34316;51.514;-0.178;2024-03-07T02:35:38;23.15;;;20.70;;
48524;SDS011;34316;51.514;-0.178;2024-03-07T02:37:40;22.98;;;20.02;;
48524;SDS011;34316;51.514;-0.178;2024-03-07T02:39:42;22.92;;;19.92;;
48524;SDS011;34316;51.514;-0.178;2024-03-07T02:41:44;21.30;;;19.05;;
48524;SDS011;34316;51.514;-0.178;2024-03-07T02:43:49;21.27;;;18.92;;
48524;SDS011;34316;51.514;-0.178;2024-03-07T02:45:51;19.17;;;17.17;;
48524;SDS011;34316;51.514;-0.178;2024-03-07T02:47:53;19.67;;;17.58;;
48524;SDS011;34316;51.514;-0.178;2024-03-07T02:49:56;16.38;;;14.68;;
48524;SDS011;34316;51.514;-0.178;2024-03-07T02:51:58;13.88;;;11.73;;
48524;SDS011;34316;51.514;-0.178;2024-03-07T02:54:00;12.38;;;11.18;;
48524;SDS011;34316;51.514;-0.178;2024-03-07T02:56:02;12.80;;;11.40;;
48524;SDS011;34316;51.514;-0.178;2024-03-07T02:58:04;9.15;;;8.13;;
48524;SDS011;34316;51.514;-0.178;2024-03-07T03:00:07;7.95;;;7.10;;
48524;SDS011;34316;51.514;-0.178;2024-03-07T03:02:21;7.82;;;7.03;;
48524;SDS011;34316;51.514;-0.178;2024-03-07T03:04:23;6.93;;;6.22;;
48524;SDS011;34316;51.514;-0.178;2024-03-07T03:06:26;5.30;;;4.55;;
48524;SDS011;34316;51.514;-0.178;2024-03-07T03:08:28;5.40;;;4.18;;
48524;SDS011;34316;51.514;-0.178;2024-03-07T03:10:30;4.97;;;4.30;;
48524;SDS011;34316;51.514;-0.178;2024-03-07T03:12:32;5.38;;;4.40;;
48524;SDS011;34316;51.514;-0.178;2024-03-07T03:14:34;4.50;;;4.03;;
48524;SDS011;34316;51.514;-0.178;2024-03-07T03:16:36;4.25;;;3.63;;
48524;SDS011;34316;51.514;-0.178;2024-03-07T03:18:48;4.82;;;3.35;;
48524;SDS011;34316;51.514;-0.178;2024-03-07T03:20:50;4.13;;;3.45;;
48524;SDS011;34316;51.514;-0.178;2024-03-07T03:22:54;4.03;;;3.13;;
48524;SDS011;34316;51.514;-0.178;2024-03-07T03:24:59;3.30;;;2.88;;
48524;SDS011;34316;51.514;-0.178;2024-03-07T03:27:01;3.90;;;3.40;;
48524;SDS011;34316;51.514;-0.178;2024-03-07T03:29:03;4.50;;;3.97;;
48524;SDS011;34316;51.514;-0.178;2024-03-07T03:31:05;4.57;;;3.67;;
48524;SDS011;34316;51.514;-0.178;2024-03-07T03:33:08;4.78;;;3.70;;
48524;SDS011;34316;51.514;-0.178;2024-03-07T03:35:11;5.60;;;4.80;;
48524;SDS011;34316;51.514;-0.178;2024-03-07T03:37:14;6.55;;;4.32;;
48524;SDS011;34316;51.514;-0.178;2024-03-07T03:39:16;4.82;;;4.32;;
48524;SDS011;34316;51.514;-0.178;2024-03-07T03:41:22;6.00;;;5.20;;
48524;SDS011;34316;51.514;-0.178;2024-03-07T03:43:24;6.50;;;4.97;;
48524;SDS011;34316;51.514;-0.178;2024-03-07T03:45:26;5.47;;;4.15;;
48524;SDS011;34316;51.514;-0.178;2024-03-07T03:47:28;4.65;;;3.95;;
48524;SDS011;34316;51.514;-0.178;2024-03-07T03:49:31;4.80;;;4.05;;
48524;SDS011;34316;51.514;-0.178;2024-03-07T03:51:33;4.53;;;3.58;;
48524;SDS011;34316;51.514;-0.178;2024-03-07T03:53:35;4.55;;;4.13;;
48524;SDS011;34316;51.514;-0.178;2024-03-07T03:55:38;5.47;;;4.68;;
48524;SDS011;34316;51.514;-0.178;2024-03-07T03:57:40;5.80;;;4.53;;
48524;SDS011;34316;51.514;-0.178;2024-03-07T03:59:43;6.40;;;5.78;;
48524;SDS011;34316;51.514;-0.178;2024-03-07T04:01:46;7.53;;;5.85;;
48524;SDS011;34316;51.514;-0.178;2024-03-07T04:03:49;9.32;;;6.32;;
48524;SDS011;34316;51.514;-0.178;2024-03-07T04:05:52;6.70;;;6.00;;
48524;SDS011;34316;51.514;-0.178;2024-03-07T04:07:54;8.07;;;6.95;;
48524;SDS011;34316;51.514;-0.178;2024-03-07T04:09:57;8.32;;;6.05;;
48524;SDS011;34316;51.514;-0.178;2024-03-07T04:12:04;6.25;;;5.25;;
48524;SDS011;34316;51.514;-0.178;2024-03-07T04:14:07;4.63;;;4.22;;
48524;SDS011;34316;51.514;-0.178;2024-03-07T04:16:09;4.38;;;3.83;;
48524;SDS011;34316;51.514;-0.178;2024-03-07T04:18:11;4.60;;;4.07;;
48524;SDS011;34316;51.514;-0.178;2024-03-07T04:20:13;5.00;;;4.13;;
48524;SDS011;34316;51.514;-0.178;2024-03-07T04:22:15;4.47;;;3.65;;
48524;SDS011;34316;51.514;-0.178;2024-03-07T04:24:17;4.97;;;3.85;;
48524;SDS011;34316;51.514;-0.178;2024-03-07T04:26:19;4.38;;;3.50;;
48524;SDS011;34316;51.514;-0.178;2024-03-07T04:28:20;5.38;;;3.42;;
48524;SDS011;34316;51.514;-0.178;2024-03-07T04:30:23;5.25;;;3.72;;
48524;SDS011;34316;51.514;-0.178;2024-03-07T04:32:25;5.18;;;4.25;;
48524;SDS011;34316;51.514;-0.178;2024-03-07T04:34:27;6.43;;;5.72;;
48524;SDS011;34316;51.514;-0.178;2024-03-07T04:36:32;5.40;;;4.90;;
48524;SDS011;34316;51.514;-0.178;2024-03-07T04:38:33;6.82;;;5.13;;
48524;SDS011;34316;51.514;-0.178;2024-03-07T04:40:35;6.57;;;5.40;;
48524;SDS011;34316;51.514;-0.178;2024-03-07T04:42:37;7.93;;;5.45;;
48524;SDS011;34316;51.514;-0.178;2024-03-07T04:44:39;5.05;;;3.90;;
48524;SDS011;34316;51.514;-0.178;2024-03-07T04:46:41;4.35;;;3.58;;
48524;SDS011;34316;51.514;-0.178;2024-03-07T04:50:47;4.13;;;3.03;;
48524;SDS011;34316;51.514;-0.178;2024-03-07T04:52:49;3.33;;;2.72;;
48524;SDS011;34316;51.514;-0.178;2024-03-07T04:54:51;3.33;;;2.60;;
48524;SDS011;34316;51.514;-0.178;2024-03-07T04:56:53;3.42;;;2.67;;
48524;SDS011;34316;51.514;-0.178;2024-03-07T04:58:55;4.55;;;2.90;;
48524;SDS011;34316;51.514;-0.178;2024-03-07T05:00:57;3.08;;;2.35;;
48524;SDS011;34316;51.514;-0.178;2024-03-07T05:02:59;2.63;;;2.00;;
48524;SDS011;34316;51.514;-0.178;2024-03-07T05:05:01;2.85;;;1.88;;
48524;SDS011;34316;51.514;-0.178;2024-03-07T05:07:03;3.03;;;2.17;;
48524;SDS011;34316;51.514;-0.178;2024-03-07T05:09:05;3.50;;;1.90;;
48524;SDS011;34316;51.514;-0.178;2024-03-07T05:11:08;4.22;;;1.75;;
48524;SDS011;34316;51.514;-0.178;2024-03-07T05:13:10;2.47;;;1.55;;
48524;SDS011;34316;51.514;-0.178;2024-03-07T05:15:12;2.80;;;1.77;;
48524;SDS011;34316;51.514;-0.178;2024-03-07T05:17:14;3.28;;;1.90;;
48524;SDS011;34316;51.514;-0.178;2024-03-07T05:19:16;2.05;;;1.50;;
48524;SDS011;34316;51.514;-0.178;2024-03-07T05:21:18;3.50;;;1.73;;
48524;SDS011;34316;51.514;-0.178;2024-03-07T05:23:35;2.50;;;1.73;;
48524;SDS011;34316;51.514;-0.178;2024-03-07T05:25:37;2.40;;;1.83;;
48524;SDS011;34316;51.514;-0.178;2024-03-07T05:27:41;3.63;;;2.08;;
48524;SDS011;34316;51.514;-0.178;2024-03-07T05:29:43;3.40;;;2.20;;
48524;SDS011;34316;51.514;-0.178;2024-03-07T05:31:45;3.17;;;2.38;;
48524;SDS011;34316;51.514;-0.178;2024-03-07T05:33:49;2.88;;;2.20;;
48524;SDS011;34316;51.514;-0.178;2024-03-07T05:35:51;2.90;;;2.10;;
48524;SDS011;34316;51.514;-0.178;2024-03-07T05:38:04;5.93;;;2.47;;
48524;SDS011;34316;51.514;-0.178;2024-03-07T05:40:06;3.50;;;2.22;;
48524;SDS011;34316;51.514;-0.178;2024-03-07T05:42:11;3.78;;;2.30;;
48524;SDS011;34316;51.514;-0.178;2024-03-07T05:44:15;5.75;;;3.00;;
48524;SDS011;34316;51.514;-0.178;2024-03-07T05:46:17;4.15;;;3.00;;
48524;SDS011;34316;51.514;-0.178;2024-03-07T05:48:19;3.00;;;2.70;;
48524;SDS011;34316;51.514;-0.178;2024-03-07T05:50:21;4.05;;;3.20;;
48524;SDS011;34316;51.514;-0.178;2024-03-07T05:52:23;4.00;;;3.38;;
48524;SDS011;34316;51.514;-0.178;2024-03-07T05:54:25;4.63;;;3.75;;
48524;SDS011;34316;51.514;-0.178;2024-03-07T05:56:27;7.93;;;4.75;;
48524;SDS011;34316;51.514;-0.178;2024-03-07T05:58:29;5.85;;;4.25;;
48524;SDS011;34316;51.514;-0.178;2024-03-07T06:00:31;5.47;;;4.50;;
48524;SDS011;34316;51.514;-0.178;2024-03-07T06:02:36;6.72;;;5.03;;
48524;SDS011;34316;51.514;-0.178;2024-03-07T06:04:38;6.10;;;4.03;;
48524;SDS011;34316;51.514;-0.178;2024-03-07T06:06:40;7.25;;;4.57;;
48524;SDS011;34316;51.514;-0.178;2024-03-07T06:08:43;5.22;;;4.22;;
48524;SDS011;34316;51.514;-0.178;2024-03-07T06:10:46;5.57;;;4.35;;
48524;SDS011;34316;51.514;-0.178;2024-03-07T06:12:49;5.75;;;4.30;;
48524;SDS011;34316;51.514;-0.178;2024-03-07T06:15:09;5.75;;;4.55;;
48524;SDS011;34316;51.514;-0.178;2024-03-07T06:17:11;8.00;;;5.88;;
48524;SDS011;34316;51.514;-0.178;2024-03-07T06:19:13;7.03;;;4.13;;
48524;SDS011;34316;51.514;-0.178;2024-03-07T06:21:15;7.47;;;4.32;;
48524;SDS011;34316;51.514;-0.178;2024-03-07T06:23:17;4.97;;;3.90;;
48524;SDS011;34316;51.514;-0.178;2024-03-07T06:25:19;6.82;;;3.97;;
48524;SDS011;34316;51.514;-0.178;2024-03-07T06:27:35;6.28;;;4.50;;
48524;SDS011;34316;51.514;-0.178;2024-03-07T06:29:39;5.40;;;4.13;;
48524;SDS011;34316;51.514;-0.178;2024-03-07T06:31:41;4.80;;;3.65;;
48524;SDS011;34316;51.514;-0.178;2024-03-07T06:33:43;8.35;;;4.07;;
48524;SDS011;34316;51.514;-0.178;2024-03-07T06:36:04;5.35;;;4.53;;
48524;SDS011;34316;51.514;-0.178;2024-03-07T06:38:06;6.13;;;4.50;;
48524;SDS011;34316;51.514;-0.178;2024-03-07T06:40:12;7.00;;;4.00;;
48524;SDS011;34316;51.514;-0.178;2024-03-07T06:42:16;5.95;;;4.85;;
48524;SDS011;34316;51.514;-0.178;2024-03-07T06:44:18;7.03;;;4.95;;
48524;SDS011;34316;51.514;-0.178;2024-03-07T06:46:25;6.38;;;5.25;;
48524;SDS011;34316;51.514;-0.178;2024-03-07T06:48:27;5.65;;;4.65;;
48524;SDS011;34316;51.514;-0.178;2024-03-07T06:50:29;8.35;;;5.07;;
48524;SDS011;34316;51.514;-0.178;2024-03-07T06:52:38;5.90;;;4.95;;
48524;SDS011;34316;51.514;-0.178;2024-03-07T06:54:40;6.88;;;4.95;;
48524;SDS011;34316;51.514;-0.178;2024-03-07T06:56:42;6.93;;;5.05;;
48524;SDS011;34316;51.514;-0.178;2024-03-07T06:58:46;6.30;;;5.00;;
48524;SDS011;34316;51.514;-0.178;2024-03-07T07:00:50;6.15;;;5.28;;
48524;SDS011;34316;51.514;-0.178;2024-03-07T07:02:55;5.97;;;4.97;;
48524;SDS011;34316;51.514;-0.178;2024-03-07T07:04:57;7.30;;;5.38;;
48524;SDS011;34316;51.514;-0.178;2024-03-07T07:06:59;7.05;;;6.07;;
48524;SDS011;34316;51.514;-0.178;2024-03-07T07:09:02;8.50;;;5.53;;
48524;SDS011;34316;51.514;-0.178;2024-03-07T07:11:07;7.10;;;5.53;;
48524;SDS011;34316;51.514;-0.178;2024-03-07T07:13:09;7.28;;;5.72;;
48524;SDS011;34316;51.514;-0.178;2024-03-07T07:15:12;11.00;;;7.00;;
48524;SDS011;34316;51.514;-0.178;2024-03-07T07:17:18;6.88;;;5.47;;
48524;SDS011;34316;51.514;-0.178;2024-03-07T07:19:21;7.72;;;5.65;;
48524;SDS011;34316;51.514;-0.178;2024-03-07T07:21:24;6.57;;;5.30;;
48524;SDS011;34316;51.514;-0.178;2024-03-07T07:23:26;6.57;;;5.45;;
48524;SDS011;34316;51.514;-0.178;2024-03-07T07:25:28;7.43;;;6.00;;
48524;SDS011;34316;51.514;-0.178;2024-03-07T07:27:31;6.72;;;5.50;;
48524;SDS011;34316;51.514;-0.178;2024-03-07T07:29:34;9.02;;;5.93;;
48524;SDS011;34316;51.514;-0.178;2024-03-07T07:31:36;7.57;;;5.80;;
48524;SDS011;34316;51.514;-0.178;2024-03-07T07:33:38;6.88;;;5.55;;
48524;SDS011;34316;51.514;-0.178;2024-03-07T07:35:40;8.25;;;5.45;;
48524;SDS011;34316;51.514;-0.178;2024-03-07T07:37:46;6.53;;;5.20;;
48524;SDS011;34316;51.514;-0.178;2024-03-07T07:39:49;5.72;;;4.65;;
48524;SDS011;34316;51.514;-0.178;2024-03-07T07:41:52;5.53;;;4.63;;
48524;SDS011;34316;51.514;-0.178;2024-03-07T07:43:54;5.30;;;4.55;;
48524;SDS011;34316;51.514;-0.178;2024-03-07T07:45:57;4.73;;;4.07;;
48524;SDS011;34316;51.514;-0.178;2024-03-07T07:48:00;6.90;;;4.45;;
48524;SDS011;34316;51.514;-0.178;2024-03-07T07:50:03;6.90;;;5.22;;
48524;SDS011;34316;51.514;-0.178;2024-03-07T07:52:08;6.82;;;5.50;;
48524;SDS011;34316;51.514;-0.178;2024-03-07T07:54:10;9.85;;;4.95;;
48524;SDS011;34316;51.514;-0.178;2024-03-07T07:56:12;5.30;;;4.50;;
48524;SDS011;34316;51.514;-0.178;2024-03-07T07:58:14;4.78;;;4.18;;
48524;SDS011;34316;51.514;-0.178;2024-03-07T08:00:16;5.40;;;4.15;;
48524;SDS011;34316;51.514;-0.178;2024-03-07T08:02:25;4.93;;;4.07;;
48524;SDS011;34316;51.514;-0.178;2024-03-07T08:04:29;4.65;;;3.90;;
48524;SDS011;34316;51.514;-0.178;2024-03-07T08:06:32;5.32;;;4.10;;
48524;SDS011;34316;51.514;-0.178;2024-03-07T08:08:33;5.35;;;4.75;;
48524;SDS011;34316;51.514;-0.178;2024-03-07T08:10:36;9.85;;;4.82;;
48524;SDS011;34316;51.514;-0.178;2024-03-07T08:12:39;5.88;;;4.93;;
48524;SDS011;34316;51.514;-0.178;2024-03-07T08:14:44;7.30;;;5.68;;
48524;SDS011;34316;51.514;-0.178;2024-03-07T08:16:50;9.90;;;7.60;;
48524;SDS011;34316;51.514;-0.178;2024-03-07T08:18:53;8.70;;;5.63;;
48524;SDS011;34316;51.514;-0.178;2024-03-07T08:20:54;19.25;;;11.07;;
48524;SDS011;34316;51.514;-0.178;2024-03-07T08:22:57;19.02;;;12.05;;
48524;SDS011;34316;51.514;-0.178;2024-03-07T08:25:01;23.65;;;13.25;;
48524;SDS011;34316;51.514;-0.178;2024-03-07T08:27:03;9.00;;;6.60;;
48524;SDS011;34316;51.514;-0.178;2024-03-07T08:29:05;6.50;;;5.50;;
48524;SDS011;34316;51.514;-0.178;2024-03-07T08:31:07;17.55;;;8.38;;
48524;SDS011;34316;51.514;-0.178;2024-03-07T08:33:10;15.88;;;9.52;;
48524;SDS011;34316;51.514;-0.178;2024-03-07T08:35:14;8.65;;;6.93;;
48524;SDS011;34316;51.514;-0.178;2024-03-07T08:37:17;11.13;;;7.38;;
48524;SDS011;34316;51.514;-0.178;2024-03-07T08:39:19;8.55;;;6.63;;
48524;SDS011;34316;51.514;-0.178;2024-03-07T08:41:21;7.70;;;5.63;;
48524;SDS011;34316;51.514;-0.178;2024-03-07T08:43:22;17.33;;;9.27;;
48524;SDS011;34316;51.514;-0.178;2024-03-07T08:45:27;10.98;;;7.88;;
48524;SDS011;34316;51.514;-0.178;2024-03-07T08:47:30;9.98;;;7.28;;
48524;SDS011;34316;51.514;-0.178;2024-03-07T08:49:32;10.07;;;8.00;;
48524;SDS011;34316;51.514;-0.178;2024-03-07T08:51:34;11.88;;;8.18;;
48524;SDS011;34316;51.514;-0.178;2024-03-07T08:53:36;7.65;;;5.95;;
48524;SDS011;34316;51.514;-0.178;2024-03-07T08:55:38;5.65;;;5.05;;
48524;SDS011;34316;51.514;-0.178;2024-03-07T08:57:40;6.88;;;5.15;;
48524;SDS011;34316;51.514;-0.178;2024-03-07T08:59:43;6.57;;;5.40;;
48524;SDS011;34316;51.514;-0.178;2024-03-07T09:01:45;6.35;;;5.55;;
48524;SDS011;34316;51.514;-0.178;2024-03-07T09:03:47;6.80;;;5.40;;
48524;SDS011;34316;51.514;-0.178;2024-03-07T09:05:49;7.75;;;6.25;;
48524;SDS011;34316;51.514;-0.178;2024-03-07T09:07:54;6.13;;;4.97;;
48524;SDS011;34316;51.514;-0.178;2024-03-07T09:09:56;5.72;;;5.13;;
48524;SDS011;34316;51.514;-0.178;2024-03-07T09:11:58;5.72;;;5.00;;
48524;SDS011;34316;51.514;-0.178;2024-03-07T09:14:03;7.57;;;5.05;;
48524;SDS011;34316;51.514;-0.178;2024-03-07T09:16:11;5.75;;;5.13;;
48524;SDS011;34316;51.514;-0.178;2024-03-07T09:18:13;5.03;;;4.43;;
48524;SDS011;34316;51.514;-0.178;2024-03-07T09:20:16;7.13;;;4.65;;
48524;SDS011;34316;51.514;-0.178;2024-03-07T09:22:22;6.75;;;4.95;;
48524;SDS011;34316;51.514;-0.178;2024-03-07T09:24:23;5.97;;;4.70;;
48524;SDS011;34316;51.514;-0.178;2024-03-07T09:26:26;4.93;;;4.20;;
48524;SDS011;34316;51.514;-0.178;2024-03-07T09:28:28;5.80;;;4.38;;
48524;SDS011;34316;51.514;-0.178;2024-03-07T09:30:30;7.15;;;4.85;;
48524;SDS011;34316;51.514;-0.178;2024-03-07T09:32:32;4.80;;;4.30;;
48524;SDS011;34316;51.514;-0.178;2024-03-07T09:34:35;7.10;;;4.72;;
48524;SDS011;34316;51.514;-0.178;2024-03-07T09:36:38;5.53;;;4.90;;
48524;SDS011;34316;51.514;-0.178;2024-03-07T09:38:42;6.47;;;5.50;;
48524;SDS011;34316;51.514;-0.178;2024-03-07T09:40:46;7.65;;;5.07;;
48524;SDS011;34316;51.514;-0.178;2024-03-07T09:42:48;8.10;;;5.13;;
48524;SDS011;34316;51.514;-0.178;2024-03-07T09:44:54;6.05;;;4.78;;
48524;SDS011;34316;51.514;-0.178;2024-03-07T09:46:57;6.47;;;5.20;;
48524;SDS011;34316;51.514;-0.178;2024-03-07T09:49:05;7.32;;;4.95;;
48524;SDS011;34316;51.514;-0.178;2024-03-07T09:51:10;7.88;;;5.38;;
48524;SDS011;34316;51.514;-0.178;2024-03-07T09:53:13;11.63;;;7.00;;
48524;SDS011;34316;51.514;-0.178;2024-03-07T09:55:17;8.30;;;5.90;;
48524;SDS011;34316;51.514;-0.178;2024-03-07T09:57:19;7.80;;;6.25;;
48524;SDS011;34316;51.514;-0.178;2024-03-07T09:59:21;6.82;;;5.75;;
48524;SDS011;34316;51.514;-0.178;2024-03-07T10:01:28;8.95;;;6.63;;
48524;SDS011;34316;51.514;-0.178;2024-03-07T10:03:33;10.48;;;7.10;;
48524;SDS011;34316;51.514;-0.178;2024-03-07T10:05:36;6.85;;;5.53;;
48524;SDS011;34316;51.514;-0.178;2024-03-07T10:07:40;7.03;;;6.25;;
48524;SDS011;34316;51.514;-0.178;2024-03-07T10:09:42;8.25;;;6.10;;
48524;SDS011;34316;51.514;-0.178;2024-03-07T10:11:44;6.40;;;5.63;;
48524;SDS011;34316;51.514;-0.178;2024-03-07T10:13:48;8.73;;;7.78;;
48524;SDS011;34316;51.514;-0.178;2024-03-07T10:15:51;8.55;;;7.07;;
48524;SDS011;34316;51.514;-0.178;2024-03-07T10:17:54;10.00;;;8.32;;
48524;SDS011;34316;51.514;-0.178;2024-03-07T10:19:59;8.60;;;6.63;;
48524;SDS011;34316;51.514;-0.178;2024-03-07T10:22:02;8.75;;;6.53;;
48524;SDS011;34316;51.514;-0.178;2024-03-07T10:24:08;10.57;;;6.28;;
48524;SDS011;34316;51.514;-0.178;2024-03-07T10:26:12;6.75;;;6.07;;
48524;SDS011;34316;51.514;-0.178;2024-03-07T10:28:17;11.40;;;8.48;;
48524;SDS011;34316;51.514;-0.178;2024-03-07T10:30:20;7.65;;;6.63;;
48524;SDS011;34316;51.514;-0.178;2024-03-07T10:32:23;9.97;;;6.57;;
48524;SDS011;34316;51.514;-0.178;2024-03-07T10:34:25;6.53;;;5.82;;
48524;SDS011;34316;51.514;-0.178;2024-03-07T10:36:34;8.45;;;6.60;;
48524;SDS011;34316;51.514;-0.178;2024-03-07T10:38:36;7.13;;;5.50;;
48524;SDS011;34316;51.514;-0.178;2024-03-07T10:40:39;6.95;;;5.15;;
48524;SDS011;34316;51.514;-0.178;2024-03-07T10:42:46;6.40;;;5.70;;
48524;SDS011;34316;51.514;-0.178;2024-03-07T10:44:53;7.38;;;5.72;;
48524;SDS011;34316;51.514;-0.178;2024-03-07T10:46:59;6.25;;;5.65;;
48524;SDS011;34316;51.514;-0.178;2024-03-07T10:49:04;8.18;;;6.10;;
48524;SDS011;34316;51.514;-0.178;2024-03-07T10:51:29;7.03;;;5.97;;
48524;SDS011;34316;51.514;-0.178;2024-03-07T10:53:49;8.13;;;6.13;;
48524;SDS011;34316;51.514;-0.178;2024-03-07T10:58:40;6.18;;;5.57;;
48524;SDS011;34316;51.514;-0.178;2024-03-07T11:00:45;7.45;;;5.82;;
48524;SDS011;34316;51.514;-0.178;2024-03-07T11:02:48;8.60;;;5.13;;
48524;SDS011;34316;51.514;-0.178;2024-03-07T11:04:55;6.80;;;5.88;;
48524;SDS011;34316;51.514;-0.178;2024-03-07T11:06:57;7.93;;;5.35;;
48524;SDS011;34316;51.514;-0.178;2024-03-07T11:09:01;8.65;;;5.53;;
48524;SDS011;34316;51.514;-0.178;2024-03-07T11:11:12;9.30;;;5.93;;
48524;SDS011;34316;51.514;-0.178;2024-03-07T11:13:15;10.80;;;5.45;;
48524;SDS011;34316;51.514;-0.178;2024-03-07T11:15:18;8.70;;;6.20;;
48524;SDS011;34316;51.514;-0.178;2024-03-07T11:17:23;8.93;;;5.90;;
48524;SDS011;34316;51.514;-0.178;2024-03-07T11:19:26;8.43;;;6.05;;
48524;SDS011;34316;51.514;-0.178;2024-03-07T11:21:42;8.10;;;6.28;;
48524;SDS011;34316;51.514;-0.178;2024-03-07T11:23:45;6.95;;;5.45;;
48524;SDS011;34316;51.514;-0.178;2024-03-07T11:25:47;11.93;;;5.57;;
48524;SDS011;34316;51.514;-0.178;2024-03-07T11:28:00;7.95;;;5.18;;
48524;SDS011;34316;51.514;-0.178;2024-03-07T11:30:06;6.90;;;5.18;;
48524;SDS011;34316;51.514;-0.178;2024-03-07T11:32:13;6.57;;;5.22;;
48524;SDS011;34316;51.514;-0.178;2024-03-07T11:34:16;6.70;;;4.82;;
48524;SDS011;34316;51.514;-0.178;2024-03-07T11:36:41;7.82;;;4.70;;
48524;SDS011;34316;51.514;-0.178;2024-03-07T11:38:47;6.77;;;5.27;;
48524;SDS011;34316;51.514;-0.178;2024-03-07T11:40:50;9.00;;;5.32;;
48524;SDS011;34316;51.514;-0.178;2024-03-07T11:42:53;11.32;;;8.27;;
48524;SDS011;34316;51.514;-0.178;2024-03-07T11:44:55;7.28;;;5.70;;
48524;SDS011;34316;51.514;-0.178;2024-03-07T11:46:58;6.07;;;5.30;;
48524;SDS011;34316;51.514;-0.178;2024-03-07T11:49:03;7.55;;;5.70;;
48524;SDS011;34316;51.514;-0.178;2024-03-07T11:51:05;9.13;;;5.50;;
48524;SDS011;34316;51.514;-0.178;2024-03-07T11:53:07;7.88;;;5.60;;
48524;SDS011;34316;51.514;-0.178;2024-03-07T11:55:10;5.22;;;4.72;;
48524;SDS011;34316;51.514;-0.178;2024-03-07T11:57:19;7.25;;;5.00;;
48524;SDS011;34316;51.514;-0.178;2024-03-07T11:59:21;5.80;;;5.28;;
48524;SDS011;34316;51.514;-0.178;2024-03-07T12:01:26;6.13;;;5.13;;
48524;SDS011;34316;51.514;-0.178;2024-03-07T12:03:29;10.70;;;5.75;;
48524;SDS011;34316;51.514;-0.178;2024-03-07T12:05:32;7.30;;;5.15;;
48524;SDS011;34316;51.514;-0.178;2024-03-07T12:07:35;6.03;;;5.43;;
48524;SDS011;34316;51.514;-0.178;2024-03-07T12:09:39;8.98;;;5.20;;
48524;SDS011;34316;51.514;-0.178;2024-03-07T12:11:41;5.95;;;5.35;;